DAL430 KLAX-KMSP
Flight info
| Callsign | DAL430 |
|---|---|
| Flight time | N/A |
| Altitude | 33000 |
| Route | ORCKA5 LAS BAWER LARVE/N0458F350 EKR BFF SSWAN TORGY4 |
| Aircraft | A321/M-SDE3FGHIRWY/LB1 |
Departure
| Time | 2026-05-06 23:11 |
|---|---|
| Airport | Los Angeles International Airport (KLAX) |
Arrival
| Time | N/A |
|---|---|
| Airport | Minneapolis–Saint Paul International Airport / Wold–Chamberlain Field (KMSP) |
| Time | Latitude | Longitude | Altitude | Speed | Heading |
|---|---|---|---|---|---|
| 2026-05-06 22:42 | 33.94601 | -118.40806 | 93 ft | 0 kts | 110° |
| 2026-05-06 22:46 | 33.94602 | -118.40806 | 93 ft | 1 kts | 110° |
| 2026-05-06 22:46 | 33.94609 | -118.40834 | 93 ft | 4 kts | 110° |
| 2026-05-06 22:46 | 33.94617 | -118.40860 | 94 ft | 4 kts | 89° |
| 2026-05-06 22:47 | 33.94608 | -118.40884 | 91 ft | 4 kts | 25° |
| 2026-05-06 22:47 | 33.94583 | -118.40891 | 92 ft | 4 kts | 359° |
| 2026-05-06 22:47 | 33.94575 | -118.40891 | 92 ft | 4 kts | 353° |
| 2026-05-06 22:47 | 33.94602 | -118.40895 | 93 ft | 4 kts | 353° |
| 2026-05-06 22:48 | 33.94620 | -118.40898 | 95 ft | 0 kts | 353° |
| 2026-05-06 22:57 | 33.94646 | -118.40902 | 94 ft | 8 kts | 353° |
| 2026-05-06 22:57 | 33.94709 | -118.40911 | 93 ft | 8 kts | 349° |
| 2026-05-06 22:57 | 33.94740 | -118.40954 | 93 ft | 6 kts | 283° |
| 2026-05-06 22:58 | 33.94739 | -118.41003 | 93 ft | 5 kts | 263° |
| 2026-05-06 22:58 | 33.94735 | -118.41047 | 93 ft | 7 kts | 263° |
| 2026-05-06 22:58 | 33.94727 | -118.41124 | 95 ft | 11 kts | 263° |
| 2026-05-06 22:58 | 33.94707 | -118.41206 | 93 ft | 10 kts | 250° |
| 2026-05-06 22:59 | 33.94673 | -118.41271 | 95 ft | 9 kts | 208° |
| 2026-05-06 22:59 | 33.94616 | -118.41272 | 95 ft | 8 kts | 172° |
| 2026-05-06 22:59 | 33.94558 | -118.41264 | 95 ft | 11 kts | 174° |
| 2026-05-06 22:59 | 33.94497 | -118.41291 | 93 ft | 10 kts | 241° |
| 2026-05-06 23:00 | 33.94456 | -118.41344 | 93 ft | 8 kts | 196° |
| 2026-05-06 23:00 | 33.94402 | -118.41341 | 94 ft | 7 kts | 172° |
| 2026-05-06 23:00 | 33.94352 | -118.41334 | 93 ft | 7 kts | 174° |
| 2026-05-06 23:00 | 33.94300 | -118.41326 | 93 ft | 7 kts | 172° |
| 2026-05-06 23:01 | 33.94249 | -118.41318 | 93 ft | 9 kts | 173° |
| 2026-05-06 23:01 | 33.94166 | -118.41306 | 93 ft | 15 kts | 173° |
| 2026-05-06 23:01 | 33.94058 | -118.41290 | 93 ft | 15 kts | 173° |
| 2026-05-06 23:01 | 33.93956 | -118.41275 | 93 ft | 14 kts | 173° |
| 2026-05-06 23:02 | 33.93862 | -118.41260 | 93 ft | 13 kts | 172° |
| 2026-05-06 23:02 | 33.93781 | -118.41244 | 93 ft | 10 kts | 157° |
| 2026-05-06 23:02 | 33.93757 | -118.41179 | 95 ft | 8 kts | 89° |
| 2026-05-06 23:02 | 33.93765 | -118.41103 | 96 ft | 12 kts | 80° |
| 2026-05-06 23:03 | 33.93780 | -118.40962 | 93 ft | 20 kts | 83° |
| 2026-05-06 23:03 | 33.93796 | -118.40810 | 97 ft | 17 kts | 82° |
| 2026-05-06 23:03 | 33.93808 | -118.40693 | 94 ft | 11 kts | 83° |
| 2026-05-06 23:03 | 33.93816 | -118.40609 | 94 ft | 9 kts | 83° |
| 2026-05-06 23:04 | 33.93823 | -118.40538 | 94 ft | 8 kts | 83° |
| 2026-05-06 23:04 | 33.93829 | -118.40482 | 96 ft | 6 kts | 83° |
| 2026-05-06 23:04 | 33.93833 | -118.40439 | 95 ft | 5 kts | 83° |
| 2026-05-06 23:04 | 33.93837 | -118.40405 | 95 ft | 5 kts | 83° |
| 2026-05-06 23:05 | 33.93846 | -118.40318 | 96 ft | 15 kts | 82° |
| 2026-05-06 23:05 | 33.93859 | -118.40194 | 96 ft | 14 kts | 83° |
| 2026-05-06 23:05 | 33.93870 | -118.40084 | 96 ft | 12 kts | 83° |
| 2026-05-06 23:05 | 33.93880 | -118.39987 | 96 ft | 11 kts | 83° |
| 2026-05-06 23:06 | 33.93890 | -118.39887 | 96 ft | 13 kts | 83° |
| 2026-05-06 23:06 | 33.93900 | -118.39780 | 98 ft | 12 kts | 82° |
| 2026-05-06 23:06 | 33.93911 | -118.39678 | 97 ft | 14 kts | 83° |
| 2026-05-06 23:06 | 33.93927 | -118.39527 | 96 ft | 20 kts | 82° |
| 2026-05-06 23:07 | 33.93943 | -118.39366 | 95 ft | 18 kts | 83° |
| 2026-05-06 23:07 | 33.93957 | -118.39230 | 93 ft | 16 kts | 83° |
| 2026-05-06 23:07 | 33.93969 | -118.39110 | 95 ft | 13 kts | 83° |
| 2026-05-06 23:07 | 33.93981 | -118.38998 | 94 ft | 16 kts | 83° |
| 2026-05-06 23:08 | 33.93997 | -118.38850 | 94 ft | 17 kts | 83° |
| 2026-05-06 23:08 | 33.94007 | -118.38741 | 94 ft | 12 kts | 83° |
| 2026-05-06 23:08 | 33.94017 | -118.38651 | 96 ft | 10 kts | 83° |
| 2026-05-06 23:08 | 33.94024 | -118.38571 | 95 ft | 12 kts | 82° |
| 2026-05-06 23:09 | 33.94040 | -118.38429 | 99 ft | 16 kts | 84° |
| 2026-05-06 23:09 | 33.94027 | -118.38342 | 97 ft | 9 kts | 138° |
| 2026-05-06 23:09 | 33.93983 | -118.38326 | 100 ft | 5 kts | 172° |
| 2026-05-06 23:09 | 33.93950 | -118.38351 | 100 ft | 7 kts | 242° |
| 2026-05-06 23:10 | 33.93945 | -118.38405 | 99 ft | 9 kts | 265° |
| 2026-05-06 23:10 | 33.93920 | -118.38641 | 98 ft | 61 kts | 263° |
| 2026-05-06 23:10 | 33.93843 | -118.39401 | 95 ft | 119 kts | 263° |
| 2026-05-06 23:10 | 33.93722 | -118.40574 | 100 ft | 161 kts | 263° |
| 2026-05-06 23:11 | 33.93565 | -118.41969 | 467 ft | 171 kts | 261° |
| 2026-05-06 23:11 | 33.93370 | -118.43404 | 986 ft | 179 kts | 263° |
| 2026-05-06 23:11 | 33.93298 | -118.44891 | 1700 ft | 178 kts | 266° |
| 2026-05-06 23:11 | 33.93055 | -118.46404 | 2131 ft | 194 kts | 252° |
| 2026-05-06 23:12 | 33.92558 | -118.47957 | 2279 ft | 203 kts | 248° |
| 2026-05-06 23:12 | 33.91970 | -118.49596 | 2415 ft | 225 kts | 247° |
| 2026-05-06 23:12 | 33.91306 | -118.51417 | 2640 ft | 248 kts | 247° |
| 2026-05-06 23:12 | 33.90606 | -118.53345 | 3297 ft | 249 kts | 249° |
| 2026-05-06 23:13 | 33.89919 | -118.55264 | 4043 ft | 250 kts | 248° |
| 2026-05-06 23:13 | 33.89231 | -118.57205 | 4662 ft | 255 kts | 249° |
| 2026-05-06 23:13 | 33.88534 | -118.59189 | 5264 ft | 260 kts | 249° |
| 2026-05-06 23:13 | 33.87829 | -118.61206 | 5891 ft | 263 kts | 249° |
| 2026-05-06 23:14 | 33.87117 | -118.63251 | 6507 ft | 266 kts | 248° |
| 2026-05-06 23:14 | 33.86396 | -118.65314 | 7103 ft | 270 kts | 249° |
| 2026-05-06 23:14 | 33.85664 | -118.67413 | 7696 ft | 273 kts | 249° |
| 2026-05-06 23:14 | 33.84840 | -118.69450 | 8284 ft | 278 kts | 234° |
| 2026-05-06 23:15 | 33.83396 | -118.70996 | 8839 ft | 282 kts | 205° |
| 2026-05-06 23:15 | 33.81545 | -118.71785 | 9408 ft | 284 kts | 193° |
| 2026-05-06 23:15 | 33.79617 | -118.72367 | 10014 ft | 287 kts | 191° |
| 2026-05-06 23:15 | 33.77652 | -118.72841 | 10546 ft | 288 kts | 179° |
| 2026-05-06 23:16 | 33.75679 | -118.72566 | 11081 ft | 286 kts | 163° |
| 2026-05-06 23:16 | 33.73739 | -118.71992 | 11643 ft | 288 kts | 161° |
| 2026-05-06 23:16 | 33.71791 | -118.71379 | 12209 ft | 291 kts | 161° |
| 2026-05-06 23:16 | 33.69831 | -118.70757 | 12763 ft | 294 kts | 161° |
| 2026-05-06 23:17 | 33.67836 | -118.70123 | 12958 ft | 297 kts | 161° |
| 2026-05-06 23:17 | 33.65842 | -118.69484 | 12994 ft | 296 kts | 161° |
| 2026-05-06 23:17 | 33.63882 | -118.68855 | 12998 ft | 296 kts | 161° |
| 2026-05-06 23:17 | 33.61892 | -118.68216 | 13000 ft | 296 kts | 161° |
| 2026-05-06 23:18 | 33.59902 | -118.67577 | 13003 ft | 296 kts | 161° |
| 2026-05-06 23:18 | 33.57936 | -118.66865 | 13002 ft | 293 kts | 150° |
| 2026-05-06 23:18 | 33.56290 | -118.65520 | 13012 ft | 283 kts | 128° |
| 2026-05-06 23:18 | 33.55206 | -118.63607 | 13011 ft | 275 kts | 107° |
| 2026-05-06 23:19 | 33.54783 | -118.61417 | 13012 ft | 268 kts | 87° |
| 2026-05-06 23:19 | 33.55024 | -118.59237 | 13012 ft | 263 kts | 68° |
| 2026-05-06 23:19 | 33.55868 | -118.57319 | 13013 ft | 260 kts | 50° |
| 2026-05-06 23:19 | 33.57178 | -118.55881 | 13013 ft | 260 kts | 32° |
| 2026-05-06 23:20 | 33.58842 | -118.55033 | 13013 ft | 262 kts | 16° |
| 2026-05-06 23:20 | 33.60608 | -118.54467 | 13011 ft | 263 kts | 17° |
| 2026-05-06 23:20 | 33.62374 | -118.53895 | 13008 ft | 263 kts | 17° |
| 2026-05-06 23:20 | 33.64136 | -118.53321 | 13013 ft | 264 kts | 17° |
| 2026-05-06 23:21 | 33.65967 | -118.52722 | 13160 ft | 281 kts | 17° |
| 2026-05-06 23:21 | 33.67881 | -118.52097 | 13633 ft | 288 kts | 17° |
| 2026-05-06 23:21 | 33.69827 | -118.51462 | 14170 ft | 291 kts | 17° |
| 2026-05-06 23:21 | 33.71790 | -118.50820 | 14699 ft | 293 kts | 17° |
| 2026-05-06 23:22 | 33.73771 | -118.50170 | 14930 ft | 295 kts | 17° |
| 2026-05-06 23:22 | 33.75754 | -118.49521 | 14976 ft | 295 kts | 17° |
| 2026-05-06 23:22 | 33.77707 | -118.48884 | 14992 ft | 295 kts | 17° |
| 2026-05-06 23:22 | 33.79687 | -118.48238 | 14993 ft | 295 kts | 17° |
| 2026-05-06 23:23 | 33.81672 | -118.47587 | 15224 ft | 297 kts | 17° |
| 2026-05-06 23:23 | 33.83670 | -118.46931 | 15807 ft | 298 kts | 17° |
| 2026-05-06 23:23 | 33.85674 | -118.46274 | 16356 ft | 300 kts | 17° |
| 2026-05-06 23:23 | 33.87691 | -118.45611 | 16913 ft | 301 kts | 17° |
| 2026-05-06 23:24 | 33.89709 | -118.44895 | 17437 ft | 303 kts | 22° |
| 2026-05-06 23:24 | 33.91614 | -118.43813 | 17964 ft | 304 kts | 31° |
| 2026-05-06 23:24 | 33.93338 | -118.42329 | 18479 ft | 306 kts | 41° |
| 2026-05-06 23:24 | 33.94827 | -118.40485 | 18932 ft | 309 kts | 50° |
| 2026-05-06 23:25 | 33.96061 | -118.38398 | 19377 ft | 311 kts | 54° |
| 2026-05-06 23:25 | 33.97298 | -118.36211 | 19842 ft | 313 kts | 54° |
| 2026-05-06 23:25 | 33.98517 | -118.34064 | 20273 ft | 316 kts | 53° |
| 2026-05-06 23:25 | 33.99761 | -118.31873 | 20721 ft | 318 kts | 53° |
| 2026-05-06 23:26 | 34.01012 | -118.29668 | 21170 ft | 319 kts | 53° |
| 2026-05-06 23:26 | 34.02269 | -118.27450 | 21620 ft | 321 kts | 53° |
| 2026-05-06 23:26 | 34.03535 | -118.25220 | 22037 ft | 324 kts | 54° |
| 2026-05-06 23:26 | 34.04810 | -118.22973 | 22436 ft | 327 kts | 54° |
| 2026-05-06 23:27 | 34.06100 | -118.20696 | 22847 ft | 330 kts | 54° |
| 2026-05-06 23:27 | 34.07380 | -118.18436 | 23265 ft | 332 kts | 54° |
| 2026-05-06 23:27 | 34.08684 | -118.16133 | 23672 ft | 334 kts | 54° |
| 2026-05-06 23:27 | 34.09997 | -118.13813 | 24037 ft | 336 kts | 54° |
| 2026-05-06 23:28 | 34.11315 | -118.11482 | 24412 ft | 337 kts | 54° |
| 2026-05-06 23:28 | 34.12636 | -118.09141 | 24772 ft | 338 kts | 54° |